GZH weather

Evergreen Regional Airport/Middleton Field
Evergreen, Alabama, United States

Public forecast

Using degrees Fahrenheit for public forecast. Weather courtesy of forecast.io.

METAR (pilot weather report)

Retrieved 2019/08/20 15:39 UTC (0 seconds ago):

KGZH 201539Z AUTO 00000KT 10SM SCT010 SCT015 29/23 A3011 RMK AO2 T02890233 TSNO

TAF (pilot weather forecast)

Forecast is more than 12 hours old.

Closest forecast is Whiting Field Naval Air Station - North, 41.5 nm (76.9 km) S. Retrieved 2015/11/30 15:15 UTC (4 years ago):

TAF COR KNSE 301500Z 3015/0115 13004KT 9999 FEW040 BKN200 QNH3002INS FM301800 15006KT 9999 SCT040 SCT150 BKN200 QNH2997INS TEMPO 3019/0100 BKN040 FM010300 17003KT 6000 BR SCT008 BKN035 OVC150 QNH3001INS TEMPO 0103/0106 1600 BR BKN004 OVC008 FM010700 16003KT 0800 FG VV001 QNH3002INS FM011400 16006KT 4800 BR VCSH SCT002 BKN010 OVC050 COR QNH2996INS T26/3019Z T18/0110Z COR 1508 FN20031